Shawville, Canada
Current Conditions -  °F | °C
As of 10:00 PM on Thursday 18 Dec 2014 (Local Time) from CYOW Reporting Station
Overcast Overcast  
Wind Chill: 13°   Ceiling: 1500
Heat Index: 25°   Visibility: 15mi
Dew Point: 21°   Wind: 13mph
Humidity: 86%   Direction: 300°WNW
Pressure: 30"   Gusts: NA
Location:  45.6°N, 76.48°W
Report Text: CYOW 190300Z 30011KT 15SM SCT013 OVC015 M04/M06 A3000 RMK SC3SC5 SLP165
Loading
Personal Weather Stations






























Interactive Weather Map New forecast layout! Learn more

10-Day Weather Forecast

Advertisements
Track Severe Weather on mobile